Terminal Aerodrome Forecast
Issued by NWS

Home | Current Version | Previous Version | Text Only | Print | Product List | Glossary On
Versions: 1 2 3 4 5 6 7 8 9 10 11 12 13 14 15 16 17 18 19
070
FTUS43 KILX 140733 AAB
TAFDEC
TAF AMD
KDEC 140733Z 1408/1506 14008KT 3SM -SN OVC035
      TEMPO 1408/1409 1SM -SN OVC015
     FM141600 14014G22KT 1SM -SN BR SCT015 OVC025
      TEMPO 1417/1420 3/4SM -SN BR SCT002 OVC007
     FM142000 14013KT 3SM -SN BR OVC008
     FM150000 15010KT P6SM OVC015=

USA.gov is the U.S. government's official web portal to all federal, state and local government web resources and services.